createdAt,value
2022-10-14T00:03:18.557Z,976.86
2022-10-14T00:08:18.485Z,976.79
2022-10-14T00:13:18.406Z,976.74
2022-10-14T00:18:18.347Z,976.64
2022-10-14T00:23:18.298Z,976.59
2022-10-14T00:28:18.237Z,976.59
2022-10-14T00:33:18.147Z,976.64
2022-10-14T00:38:18.107Z,976.61
2022-10-14T00:43:18.037Z,976.62
2022-10-14T00:48:17.970Z,976.64
2022-10-14T00:53:17.933Z,976.65
2022-10-14T00:58:17.843Z,976.65
2022-10-14T01:03:17.777Z,976.59
2022-10-14T01:08:17.720Z,976.65
2022-10-14T01:13:17.669Z,976.66
2022-10-14T01:18:17.591Z,976.62
2022-10-14T01:23:17.542Z,976.59
2022-10-14T01:28:20.865Z,976.50
2022-10-14T01:33:17.415Z,976.49
2022-10-14T01:38:17.352Z,976.48
2022-10-14T01:43:17.282Z,976.53
2022-10-14T01:48:17.236Z,976.52
2022-10-14T01:53:17.150Z,976.47
2022-10-14T01:58:27.908Z,976.45
2022-10-14T02:03:17.019Z,976.48
2022-10-14T02:08:16.962Z,976.50
2022-10-14T02:13:16.877Z,976.46
2022-10-14T02:18:16.818Z,976.45
2022-10-14T02:23:16.777Z,976.50
2022-10-14T02:28:16.763Z,976.44
2022-10-14T02:33:16.628Z,976.43
2022-10-14T02:38:16.579Z,976.32
2022-10-14T02:43:16.491Z,976.29
2022-10-14T02:48:16.440Z,976.23
2022-10-14T02:53:16.359Z,976.26
2022-10-14T02:58:16.301Z,976.33
2022-10-14T03:03:16.238Z,976.30
2022-10-14T03:08:16.252Z,976.31
2022-10-14T03:13:16.121Z,976.30
2022-10-14T03:18:16.053Z,976.28
2022-10-14T03:23:15.994Z,976.28
2022-10-14T03:28:15.983Z,976.31
2022-10-14T03:33:18.655Z,976.25
2022-10-14T03:38:15.813Z,976.24
2022-10-14T03:43:21.064Z,976.24
2022-10-14T03:48:15.672Z,976.30
2022-10-14T03:53:15.594Z,976.23
2022-10-14T03:58:15.543Z,976.19
2022-10-14T04:03:15.475Z,976.18
2022-10-14T04:08:15.406Z,976.12
2022-10-14T04:13:15.664Z,976.08
2022-10-14T04:18:15.287Z,976.05
2022-10-14T04:23:15.217Z,976.00
2022-10-14T04:28:15.193Z,976.01
2022-10-14T04:33:15.081Z,975.93
2022-10-14T04:38:15.017Z,975.90
2022-10-14T04:43:14.959Z,975.89
2022-10-14T04:48:14.896Z,975.86
2022-10-14T04:53:16.679Z,975.80
2022-10-14T04:58:14.760Z,975.84
2022-10-14T05:03:14.710Z,975.72
2022-10-14T05:08:14.643Z,975.72
2022-10-14T05:13:14.569Z,975.71
2022-10-14T05:18:14.552Z,975.75
2022-10-14T05:23:14.462Z,975.69
2022-10-14T05:28:14.477Z,975.64
2022-10-14T05:33:14.664Z,975.69
2022-10-14T05:38:14.285Z,975.63
2022-10-14T05:43:14.194Z,975.62
2022-10-14T05:48:14.125Z,975.65
2022-10-14T05:53:14.063Z,975.66
2022-10-14T05:58:14.014Z,975.69
2022-10-14T06:03:13.971Z,975.69
2022-10-14T06:08:13.907Z,975.65
2022-10-14T06:13:13.825Z,975.67
2022-10-14T06:18:13.756Z,975.67
2022-10-14T06:23:13.681Z,975.68
2022-10-14T06:28:13.628Z,975.76
2022-10-14T06:33:13.548Z,975.82
2022-10-14T06:38:13.489Z,975.89
2022-10-14T06:43:13.428Z,975.95
2022-10-14T06:48:13.370Z,975.97
2022-10-14T06:53:13.309Z,975.99
2022-10-14T06:58:13.264Z,975.99
2022-10-14T07:03:13.203Z,976.03
2022-10-14T07:08:15.452Z,976.08
2022-10-14T07:13:13.046Z,976.13
2022-10-14T07:18:13.354Z,976.13
2022-10-14T07:23:12.924Z,976.13
2022-10-14T07:28:12.869Z,976.19
2022-10-14T07:33:12.824Z,976.22
2022-10-14T07:38:12.747Z,976.18
2022-10-14T07:43:12.665Z,976.15
2022-10-14T07:48:12.655Z,976.23
2022-10-14T07:53:12.566Z,976.19
2022-10-14T07:58:12.496Z,976.17
2022-10-14T08:03:12.450Z,976.15
2022-10-14T08:08:12.367Z,976.14
2022-10-14T08:13:12.299Z,976.10
2022-10-14T08:18:12.235Z,976.16
2022-10-14T08:23:14.908Z,976.21
2022-10-14T08:28:13.121Z,976.20
2022-10-14T08:33:12.050Z,976.20
2022-10-14T08:38:11.984Z,976.18
2022-10-14T08:43:11.910Z,976.16
2022-10-14T08:48:11.842Z,976.07
2022-10-14T08:53:11.773Z,976.03
2022-10-14T08:58:11.757Z,975.99
2022-10-14T09:03:11.749Z,976.04
2022-10-14T09:08:11.740Z,975.98
2022-10-14T09:13:11.526Z,976.05
2022-10-14T09:18:11.494Z,976.03
2022-10-14T09:23:11.417Z,975.96
2022-10-14T09:28:11.361Z,975.95
2022-10-14T09:33:11.278Z,975.90
2022-10-14T09:38:11.225Z,975.90
2022-10-14T09:43:11.156Z,975.90
2022-10-14T09:48:11.095Z,975.95
2022-10-14T09:53:11.109Z,975.93
2022-10-14T09:58:10.970Z,975.96
2022-10-14T10:03:16.243Z,975.92
2022-10-14T10:08:11.859Z,975.83
2022-10-14T10:13:10.822Z,975.85
2022-10-14T10:18:10.722Z,975.82
2022-10-14T10:23:10.654Z,975.75
2022-10-14T10:28:10.607Z,975.69
2022-10-14T10:33:10.525Z,975.59
2022-10-14T10:38:10.484Z,975.58
2022-10-14T10:43:10.395Z,975.54
2022-10-14T10:48:10.337Z,975.48
2022-10-14T10:53:10.277Z,975.42
2022-10-14T10:58:10.196Z,975.45
2022-10-14T11:03:10.137Z,975.36
2022-10-14T11:08:10.088Z,975.33
2022-10-14T11:13:10.010Z,975.27
2022-10-14T11:18:09.928Z,975.20
2022-10-14T11:23:09.899Z,975.07
2022-10-14T11:28:09.823Z,975.01
2022-10-14T11:33:09.813Z,974.94
2022-10-14T11:38:09.703Z,974.93
2022-10-14T11:43:09.623Z,974.85
2022-10-14T11:48:09.562Z,974.82
2022-10-14T11:53:09.520Z,974.79
2022-10-14T11:58:09.445Z,974.70
2022-10-14T12:03:09.429Z,974.70
2022-10-14T12:08:09.299Z,974.55
2022-10-14T12:13:09.249Z,974.51
2022-10-14T12:18:09.169Z,974.51
2022-10-14T12:23:09.108Z,974.47
2022-10-14T12:28:09.049Z,974.33
2022-10-14T12:33:08.972Z,974.21
2022-10-14T12:38:08.919Z,974.17
2022-10-14T12:43:08.859Z,974.11
2022-10-14T12:48:08.814Z,974.07
2022-10-14T12:53:08.742Z,973.99
2022-10-14T12:58:08.663Z,973.94
2022-10-14T13:03:08.585Z,973.89
2022-10-14T13:08:08.541Z,973.81
2022-10-14T13:13:08.456Z,973.79
2022-10-14T13:18:08.462Z,973.82
2022-10-14T13:23:08.338Z,973.86
2022-10-14T13:28:08.279Z,973.80
2022-10-14T13:33:08.228Z,973.78
2022-10-14T13:38:08.159Z,973.67
2022-10-14T13:43:08.091Z,973.72
2022-10-14T13:48:08.012Z,973.78
2022-10-14T13:53:10.488Z,973.74
2022-10-14T13:58:13.006Z,973.65
2022-10-14T14:03:08.813Z,973.58
2022-10-14T14:08:40.330Z,973.57
2022-10-14T14:13:08.743Z,973.62
2022-10-14T14:18:07.661Z,973.58
2022-10-14T14:23:07.575Z,973.47
2022-10-14T14:28:07.497Z,973.42
2022-10-14T14:33:07.428Z,973.44
2022-10-14T14:38:07.381Z,973.38
2022-10-14T14:43:07.298Z,973.34
2022-10-14T14:48:07.267Z,973.33
2022-10-14T14:53:07.182Z,973.38
2022-10-14T14:58:07.116Z,973.31
2022-10-14T15:03:07.052Z,973.26
2022-10-14T15:08:06.983Z,973.23
2022-10-14T15:13:06.943Z,973.24
2022-10-14T15:18:06.884Z,973.15
2022-10-14T15:23:06.805Z,973.04
2022-10-14T15:28:06.751Z,972.98
2022-10-14T15:33:06.676Z,972.97
2022-10-14T15:38:06.637Z,972.91
2022-10-14T15:43:06.558Z,972.86
2022-10-14T15:48:06.519Z,972.76
2022-10-14T15:53:06.421Z,972.80
2022-10-14T15:58:06.362Z,972.77
2022-10-14T16:03:06.311Z,972.78
2022-10-14T16:08:06.331Z,972.76
2022-10-14T16:13:06.152Z,972.73
2022-10-14T16:18:06.123Z,972.62
2022-10-14T16:23:06.032Z,972.65
2022-10-14T16:28:09.063Z,972.67
2022-10-14T16:33:06.021Z,972.78
2022-10-14T16:38:05.877Z,972.76
2022-10-14T16:43:05.775Z,972.63
2022-10-14T16:48:05.712Z,972.61
2022-10-14T16:53:06.062Z,972.62
2022-10-14T16:58:05.623Z,972.67
2022-10-14T17:03:05.518Z,972.59
2022-10-14T17:08:05.480Z,972.59
2022-10-14T17:13:05.378Z,972.63
2022-10-14T17:18:05.330Z,972.52
2022-10-14T17:23:09.454Z,972.48
2022-10-14T17:28:06.236Z,972.47
2022-10-14T17:33:05.163Z,972.57
2022-10-14T17:38:05.084Z,972.66
2022-10-14T17:43:05.023Z,972.71
2022-10-14T17:48:04.972Z,972.71
2022-10-14T17:53:04.893Z,972.81
2022-10-14T17:58:04.855Z,972.71
2022-10-14T18:03:04.797Z,972.67
2022-10-14T18:08:05.539Z,972.69
2022-10-14T18:13:04.647Z,972.68
2022-10-14T18:18:04.588Z,972.70
2022-10-14T18:23:04.520Z,972.80
2022-10-14T18:28:04.489Z,972.77
2022-10-14T18:33:04.408Z,972.76
2022-10-14T18:38:04.358Z,972.64
2022-10-14T18:43:04.270Z,972.46
2022-10-14T18:48:04.220Z,972.38
2022-10-14T18:53:04.154Z,972.36
2022-10-14T18:58:04.083Z,972.41
2022-10-14T19:03:04.054Z,972.35
2022-10-14T19:08:04.060Z,972.28
2022-10-14T19:13:03.906Z,972.30
2022-10-14T19:18:03.854Z,972.33
2022-10-14T19:23:03.785Z,972.18
2022-10-14T19:28:03.734Z,972.21
2022-10-14T19:33:03.659Z,972.24
2022-10-14T19:38:03.626Z,972.30
2022-10-14T19:43:03.536Z,972.35
2022-10-14T19:48:03.480Z,972.42
2022-10-14T19:53:03.400Z,972.27
2022-10-14T19:58:03.361Z,972.26
2022-10-14T20:03:03.286Z,972.18
2022-10-14T20:08:03.275Z,972.13
2022-10-14T20:13:03.141Z,972.17
2022-10-14T20:18:03.110Z,972.16
2022-10-14T20:23:03.022Z,972.10
2022-10-14T20:28:02.969Z,971.98
2022-10-14T20:33:02.896Z,971.92
2022-10-14T20:38:02.844Z,971.93
2022-10-14T20:43:02.766Z,971.89
2022-10-14T20:48:02.719Z,971.88
2022-10-14T20:53:02.665Z,971.84
2022-10-14T20:58:02.579Z,971.89
2022-10-14T21:03:02.527Z,971.71
2022-10-14T21:08:02.466Z,971.59
2022-10-14T21:13:02.428Z,971.54
2022-10-14T21:18:02.328Z,971.46
2022-10-14T21:23:02.259Z,971.29
2022-10-14T21:28:02.188Z,971.34
2022-10-14T21:33:02.128Z,971.32
2022-10-14T21:38:02.062Z,971.33
2022-10-14T21:43:01.991Z,971.36
2022-10-14T21:48:01.962Z,971.26
2022-10-14T21:53:01.861Z,971.22
2022-10-14T21:58:01.813Z,971.18
2022-10-14T22:03:01.734Z,971.10
2022-10-14T22:08:01.707Z,971.01
2022-10-14T22:13:01.611Z,971.10
2022-10-14T22:18:01.546Z,971.08
2022-10-14T22:23:01.484Z,971.08
2022-10-14T22:28:01.435Z,970.97
2022-10-14T22:33:01.409Z,970.97
2022-10-14T22:38:01.287Z,970.92
2022-10-14T22:43:01.233Z,970.90
2022-10-14T22:48:01.168Z,970.84
2022-10-14T22:53:01.098Z,970.89
2022-10-14T22:58:01.027Z,970.80
2022-10-14T23:03:01.039Z,970.78
2022-10-14T23:08:00.963Z,970.79
2022-10-14T23:13:00.851Z,970.76
2022-10-14T23:18:00.767Z,970.76
2022-10-14T23:23:00.731Z,970.64
2022-10-14T23:28:00.645Z,970.54
2022-10-14T23:33:00.575Z,970.52
2022-10-14T23:38:00.519Z,970.47
2022-10-14T23:43:00.465Z,970.39
2022-10-14T23:48:00.381Z,970.39
2022-10-14T23:53:00.315Z,970.39
2022-10-14T23:58:00.249Z,970.27
